Time;durP1;ratioP1;P1;durP2;ratioP2;P2;SDS_P1;SDS_P2;PMS_P1;PMS_P2;Temp;Humidity;BMP_temperature;BMP_pressure;BME280_temperature;BME280_humidity;BME280_pressure;Samples;Min_cycle;Max_cycle;Signal;HPM_P1;HPM_P2
2023/01/05 00:02:02;;;;;;;14.60;5.00;;;;;;;;;;5027132;28;20048;-76
2023/01/05 00:04:28;;;;;;;8.10;3.80;;;;;;;;;;5022659;28;20018;-76
2023/01/05 00:06:54;;;;;;;16.15;4.18;;;;;;;;;;5034370;28;20447;-76
2023/01/05 00:09:20;;;;;;;11.05;4.43;;;;;;;;;;5026263;28;20069;-75
2023/01/05 00:22:51;;;;;;;;;;;;;;;;;;5026186;28;20036;-77
2023/01/05 00:25:17;;;;;;;;;;;;;;;;;;5023254;28;19906;-76
2023/01/05 00:27:43;;;;;;;;;;;;;;;;;;5025780;28;20010;-75
2023/01/05 00:30:10;;;;;;;12.18;4.13;;;;;;;;;;5029195;28;19909;-76
2023/01/05 00:32:37;;;;;;;11.75;3.90;;;;;;;;;;5024389;28;20032;-76
2023/01/05 00:35:03;;;;;;;13.20;4.63;;;;;;;;;;5022395;28;20029;-75
2023/01/05 00:37:33;;;;;;;9.65;3.70;;;;;;;;;;5027484;28;20459;-76
2023/01/05 00:39:59;;;;;;;9.10;3.72;;;;;;;;;;5035154;28;20048;-76
2023/01/05 00:42:25;;;;;;;12.32;3.95;;;;;;;;;;5048367;28;20021;-76
2023/01/05 00:44:51;;;;;;;11.85;4.10;;;;;;;;;;5043634;28;20037;-76
2023/01/05 00:47:17;;;;;;;8.70;3.17;;;;;;;;;;5045446;28;20466;-78
2023/01/05 00:49:43;;;;;;;8.40;3.38;;;;;;;;;;5042109;28;20024;-75
2023/01/05 00:52:09;;;;;;;10.30;3.47;;;;;;;;;;5038138;28;20037;-76
2023/01/05 00:54:35;;;;;;;5.75;3.53;;;;;;;;;;5040726;28;20107;-76
2023/01/05 00:57:02;;;;;;;6.07;3.00;;;;;;;;;;5044423;28;20040;-76
2023/01/05 00:59:28;;;;;;;13.85;3.13;;;;;;;;;;5044535;28;20044;-76
2023/01/05 01:01:54;;;;;;;6.15;2.75;;;;;;;;;;5045918;28;20039;-75
2023/01/05 01:04:21;;;;;;;9.45;2.92;;;;;;;;;;5042561;28;20428;-76
2023/01/05 01:06:47;;;;;;;7.05;2.90;;;;;;;;;;5042589;28;20029;-75
2023/01/05 01:09:13;;;;;;;6.00;3.10;;;;;;;;;;5033371;28;20030;-76
2023/01/05 01:11:40;;;;;;;6.13;3.00;;;;;;;;;;5042016;28;20113;-76
2023/01/05 01:14:07;;;;;;;8.38;3.63;;;;;;;;;;5041090;28;20482;-75
2023/01/05 01:16:33;;;;;;;6.03;3.03;;;;;;;;;;5046949;28;20469;-76
2023/01/05 01:18:59;;;;;;;7.90;2.90;;;;;;;;;;5047904;28;20544;-76
2023/01/05 01:21:25;;;;;;;5.80;3.33;;;;;;;;;;5043317;28;20120;-75
2023/01/05 01:23:51;;;;;;;11.77;3.78;;;;;;;;;;5047925;28;20028;-75
2023/01/05 01:26:17;;;;;;;17.55;4.00;;;;;;;;;;5047180;28;20028;-75
2023/01/05 01:28:45;;;;;;;9.38;4.00;;;;;;;;;;5048432;28;20025;-76
2023/01/05 01:31:12;;;;;;;13.63;4.18;;;;;;;;;;5057381;28;20033;-75
2023/01/05 01:33:38;;;;;;;12.80;4.05;;;;;;;;;;5043539;28;20386;-75
2023/01/05 01:36:05;;;;;;;12.88;4.93;;;;;;;;;;5046245;28;20040;-76
2023/01/05 01:38:31;;;;;;;12.23;3.80;;;;;;;;;;5044680;28;20017;-75
2023/01/05 01:40:57;;;;;;;11.00;3.58;;;;;;;;;;5035612;28;20057;-76
2023/01/05 01:43:42;;;;;;;11.88;3.58;;;;;;;;;;5042507;28;20032;-75
2023/01/05 01:46:08;;;;;;;10.53;3.73;;;;;;;;;;5040379;28;20036;-76
2023/01/05 01:48:35;;;;;;;8.18;3.38;;;;;;;;;;5045646;28;20263;-76
2023/01/05 01:51:12;;;;;;;11.75;3.95;;;;;;;;;;5044230;28;20025;-76
2023/01/05 01:53:40;;;;;;;12.57;4.38;;;;;;;;;;5049500;28;20028;-76
2023/01/05 01:56:07;;;;;;;13.88;4.35;;;;;;;;;;5047754;28;20087;-75
2023/01/05 01:58:33;;;;;;;15.55;4.22;;;;;;;;;;5042918;28;20079;-76
2023/01/05 02:00:59;;;;;;;13.40;3.92;;;;;;;;;;5042350;28;20387;-75
2023/01/05 02:03:26;;;;;;;10.32;3.58;;;;;;;;;;5046473;28;20025;-76
2023/01/05 02:05:53;;;;;;;17.35;4.03;;;;;;;;;;5050849;28;20033;-75
2023/01/05 02:08:24;;;;;;;12.60;4.38;;;;;;;;;;5046102;28;20818;-75
2023/01/05 02:11:09;;;;;;;17.17;4.60;;;;;;;;;;5043538;28;20115;-75
2023/01/05 02:13:47;;;;;;;13.45;3.83;;;;;;;;;;5044754;28;20072;-75
2023/01/05 02:16:23;;;;;;;16.65;3.95;;;;;;;;;;5047554;28;20099;-75
2023/01/05 02:19:01;;;;;;;18.30;4.60;;;;;;;;;;5040955;28;20028;-75
2023/01/05 02:21:46;;;;;;;11.88;3.97;;;;;;;;;;5044144;28;20521;-75
2023/01/05 02:24:15;;;;;;;16.88;4.38;;;;;;;;;;5039841;28;20047;-76
2023/01/05 02:26:41;;;;;;;16.65;3.70;;;;;;;;;;5044046;28;20405;-76
2023/01/05 02:29:10;;;;;;;19.55;3.67;;;;;;;;;;5042074;28;20035;-75
2023/01/05 02:31:43;;;;;;;14.85;5.07;;;;;;;;;;5052117;28;20032;-75
2023/01/05 02:34:09;;;;;;;10.05;3.50;;;;;;;;;;5044053;28;20438;-75
2023/01/05 02:36:38;;;;;;;13.95;4.18;;;;;;;;;;5042999;28;20017;-76
2023/01/05 02:39:13;;;;;;;19.38;4.28;;;;;;;;;;5041329;28;20021;-75
2023/01/05 02:41:48;;;;;;;19.65;4.38;;;;;;;;;;5047057;28;20052;-75
2023/01/05 02:44:14;;;;;;;;;;;;;;;;;;5045304;28;20442;-75
2023/01/05 02:46:40;;;;;;;;;;;;;;;;;;5044886;28;19999;-75
2023/01/05 02:49:06;;;;;;;;;;;;;;;;;;5042672;28;19928;-75
2023/01/05 02:51:35;;;;;;;9.35;3.75;;;;;;;;;;5039991;28;19921;-75
2023/01/05 02:54:11;;;;;;;11.60;3.88;;;;;;;;;;5046857;28;20112;-75
2023/01/05 02:56:40;;;;;;;17.17;3.83;;;;;;;;;;5045839;28;20029;-75
2023/01/05 02:59:26;;;;;;;14.68;3.13;;;;;;;;;;5044468;28;20035;-76
2023/01/05 03:02:01;;;;;;;13.90;4.90;;;;;;;;;;5046433;28;20037;-76
2023/01/05 03:04:38;;;;;;;19.58;3.58;;;;;;;;;;5042339;28;20119;-75
2023/01/05 03:07:06;;;;;;;14.43;4.22;;;;;;;;;;5038289;28;20039;-76
2023/01/05 03:09:37;;;;;;;14.05;4.03;;;;;;;;;;5048876;28;20046;-75
2023/01/05 03:14:57;;;;;;;16.20;4.22;;;;;;;;;;5043978;28;20624;-75
2023/01/05 03:17:29;;;;;;;14.95;4.10;;;;;;;;;;5041267;28;20028;-76
2023/01/05 03:19:56;;;;;;;36.47;5.07;;;;;;;;;;5043292;28;20023;-76
2023/01/05 03:36:33;;;;;;;;;;;;;;;;;;5039311;28;20044;-75
2023/01/05 03:38:59;;;;;;;;;;;;;;;;;;5041561;28;19912;-75
2023/01/05 03:41:25;;;;;;;;;;;;;;;;;;5046097;28;19936;-76
2023/01/05 03:43:52;;;;;;;17.60;5.28;;;;;;;;;;5045446;28;19920;-75
2023/01/05 03:46:19;;;;;;;17.45;3.88;;;;;;;;;;5048794;28;20070;-75
2023/01/05 03:48:46;;;;;;;14.90;3.92;;;;;;;;;;5048909;28;20780;-76
2023/01/05 03:51:13;;;;;;;10.95;3.92;;;;;;;;;;5043218;28;20128;-75
2023/01/05 03:53:39;;;;;;;24.98;5.22;;;;;;;;;;5043390;28;20497;-75
2023/01/05 03:56:05;;;;;;;14.07;5.30;;;;;;;;;;5046028;28;20048;-75
2023/01/05 03:58:31;;;;;;;14.95;4.00;;;;;;;;;;5043332;28;20022;-75
2023/01/05 04:00:57;;;;;;;10.50;5.30;;;;;;;;;;5046531;28;20032;-75
2023/01/05 04:03:23;;;;;;;13.63;4.53;;;;;;;;;;5047756;28;20496;-76
2023/01/05 04:05:49;;;;;;;19.60;4.22;;;;;;;;;;5043095;28;20020;-76
2023/01/05 04:08:16;;;;;;;18.73;4.38;;;;;;;;;;5031345;28;20086;-75
2023/01/05 04:10:42;;;;;;;23.30;4.22;;;;;;;;;;5041920;28;20145;-75
2023/01/05 04:13:08;;;;;;;21.02;4.93;;;;;;;;;;5041845;28;20103;-75
2023/01/05 04:15:34;;;;;;;18.15;4.65;;;;;;;;;;5042827;28;20422;-75
2023/01/05 04:18:00;;;;;;;21.52;6.13;;;;;;;;;;5032032;28;20135;-75
2023/01/05 04:20:26;;;;;;;21.70;5.88;;;;;;;;;;5046316;28;20025;-75
2023/01/05 04:22:53;;;;;;;14.35;4.40;;;;;;;;;;5046629;28;20028;-75
2023/01/05 04:25:19;;;;;;;17.00;5.18;;;;;;;;;;5042732;28;20118;-76
2023/01/05 04:27:45;;;;;;;21.38;4.88;;;;;;;;;;5044873;28;20032;-76
2023/01/05 04:30:11;;;;;;;10.80;3.85;;;;;;;;;;5047646;28;20056;-75
2023/01/05 04:32:37;;;;;;;13.48;4.70;;;;;;;;;;5033693;28;20083;-76
2023/01/05 04:35:03;;;;;;;21.73;5.00;;;;;;;;;;5042756;28;20036;-76
2023/01/05 04:37:29;;;;;;;10.35;3.55;;;;;;;;;;5039088;28;20031;-75
2023/01/05 04:39:56;;;;;;;23.27;4.88;;;;;;;;;;5037998;28;20547;-76
2023/01/05 04:42:22;;;;;;;21.05;6.40;;;;;;;;;;5037664;28;20045;-76
2023/01/05 04:44:48;;;;;;;16.33;4.35;;;;;;;;;;5044516;28;20023;-75
2023/01/05 04:47:14;;;;;;;13.65;3.83;;;;;;;;;;5044367;28;20507;-76
2023/01/05 04:49:40;;;;;;;22.92;4.63;;;;;;;;;;5048057;28;20071;-76
2023/01/05 04:52:07;;;;;;;17.17;5.10;;;;;;;;;;5046408;28;20025;-76
2023/01/05 04:54:33;;;;;;;18.58;4.28;;;;;;;;;;5047068;28;20086;-76
2023/01/05 04:56:59;;;;;;;18.38;4.45;;;;;;;;;;5041765;28;20605;-75
2023/01/05 04:59:25;;;;;;;7.65;3.88;;;;;;;;;;5041369;28;20013;-76
2023/01/05 05:01:51;;;;;;;25.33;5.70;;;;;;;;;;5053210;28;20056;-75
2023/01/05 05:04:17;;;;;;;15.13;4.97;;;;;;;;;;5049288;28;20071;-76
2023/01/05 05:06:43;;;;;;;14.18;4.63;;;;;;;;;;5041127;28;20100;-75
2023/01/05 05:09:09;;;;;;;16.92;5.70;;;;;;;;;;5048592;28;20083;-76
2023/01/05 05:11:35;;;;;;;21.65;4.47;;;;;;;;;;5045630;28;20124;-75
2023/01/05 05:14:02;;;;;;;12.10;4.72;;;;;;;;;;5034640;28;20288;-75
2023/01/05 05:16:28;;;;;;;10.77;4.78;;;;;;;;;;5039982;28;20433;-75
2023/01/05 05:18:54;;;;;;;15.63;4.28;;;;;;;;;;5035122;28;21094;-75
2023/01/05 05:21:20;;;;;;;16.45;4.22;;;;;;;;;;5044805;28;20051;-76
2023/01/05 05:23:46;;;;;;;17.98;5.15;;;;;;;;;;5046646;28;20033;-76
2023/01/05 05:26:12;;;;;;;23.98;5.40;;;;;;;;;;5051128;28;20068;-75
2023/01/05 05:28:38;;;;;;;15.68;5.72;;;;;;;;;;5036465;28;20025;-75
2023/01/05 05:31:04;;;;;;;14.02;3.75;;;;;;;;;;5042962;28;20034;-76
2023/01/05 05:33:30;;;;;;;17.50;4.50;;;;;;;;;;5035974;28;20575;-75
2023/01/05 05:35:56;;;;;;;22.35;5.00;;;;;;;;;;5048584;28;20095;-75
2023/01/05 05:38:22;;;;;;;18.70;5.50;;;;;;;;;;5048826;28;20029;-75
2023/01/05 05:40:49;;;;;;;17.35;4.68;;;;;;;;;;5051031;28;20041;-75
2023/01/05 05:43:15;;;;;;;14.68;4.28;;;;;;;;;;5050032;28;20037;-76
2023/01/05 05:45:42;;;;;;;18.45;4.53;;;;;;;;;;5045502;28;20025;-75
2023/01/05 05:48:08;;;;;;;14.70;4.05;;;;;;;;;;5045519;28;20025;-76
2023/01/05 05:50:34;;;;;;;18.90;4.10;;;;;;;;;;5050961;28;20074;-76
2023/01/05 05:53:00;;;;;;;15.95;4.00;;;;;;;;;;5048671;28;20031;-75
2023/01/05 05:55:26;;;;;;;10.57;4.35;;;;;;;;;;5050729;28;20021;-75
2023/01/05 05:57:52;;;;;;;8.75;3.63;;;;;;;;;;5049672;28;20064;-75
2023/01/05 06:00:18;;;;;;;11.90;3.85;;;;;;;;;;5052419;28;20025;-75
2023/01/05 06:02:44;;;;;;;14.52;3.92;;;;;;;;;;5052355;28;20115;-76
2023/01/05 06:05:10;;;;;;;10.48;3.90;;;;;;;;;;5049882;28;20032;-76
2023/01/05 06:07:37;;;;;;;13.75;3.70;;;;;;;;;;5045786;28;20652;-76
2023/01/05 06:10:03;;;;;;;10.50;3.42;;;;;;;;;;5039208;28;20109;-76
2023/01/05 06:12:29;;;;;;;8.45;3.78;;;;;;;;;;5050696;28;20132;-76
2023/01/05 06:14:55;;;;;;;12.48;4.03;;;;;;;;;;5041103;28;20025;-76
2023/01/05 06:17:21;;;;;;;8.90;3.95;;;;;;;;;;5047482;28;20025;-76
2023/01/05 06:19:47;;;;;;;13.35;3.80;;;;;;;;;;5048877;28;20071;-75
2023/01/05 06:22:13;;;;;;;11.80;3.47;;;;;;;;;;5049091;28;20422;-76
2023/01/05 06:24:39;;;;;;;10.73;3.85;;;;;;;;;;5050030;28;20028;-76
2023/01/05 06:27:05;;;;;;;6.82;4.32;;;;;;;;;;5043659;28;20538;-76
2023/01/05 06:29:31;;;;;;;10.65;3.08;;;;;;;;;;5051296;28;20036;-76
2023/01/05 06:31:57;;;;;;;5.95;2.90;;;;;;;;;;5045354;28;20056;-76
2023/01/05 06:34:23;;;;;;;7.68;3.35;;;;;;;;;;5048334;28;20025;-76
2023/01/05 06:36:50;;;;;;;9.32;3.00;;;;;;;;;;5040306;28;20048;-76
2023/01/05 06:39:16;;;;;;;6.15;2.78;;;;;;;;;;5050839;28;20017;-76
2023/01/05 06:41:42;;;;;;;6.15;2.75;;;;;;;;;;5045236;28;20737;-76
2023/01/05 06:44:08;;;;;;;7.05;2.60;;;;;;;;;;5044959;28;20025;-75
2023/01/05 06:46:34;;;;;;;6.28;3.28;;;;;;;;;;5041875;28;20035;-77
2023/01/05 06:49:00;;;;;;;9.52;3.55;;;;;;;;;;5043931;28;20486;-76
2023/01/05 06:51:26;;;;;;;8.75;3.25;;;;;;;;;;5055998;28;20043;-76
2023/01/05 06:53:52;;;;;;;7.80;2.85;;;;;;;;;;5048100;28;20381;-75
2023/01/05 06:56:18;;;;;;;8.25;3.65;;;;;;;;;;5045634;28;20036;-76
2023/01/05 06:58:45;;;;;;;6.53;3.50;;;;;;;;;;5037941;28;20031;-76
2023/01/05 07:01:11;;;;;;;10.20;2.72;;;;;;;;;;5043256;28;20021;-76
2023/01/05 07:03:37;;;;;;;10.52;3.55;;;;;;;;;;5046138;28;20801;-75
2023/01/05 07:06:03;;;;;;;9.52;3.50;;;;;;;;;;5046363;28;20052;-76
2023/01/05 07:08:29;;;;;;;8.38;3.72;;;;;;;;;;5045967;28;20028;-76
2023/01/05 07:10:55;;;;;;;10.10;3.33;;;;;;;;;;5042644;28;20033;-76
2023/01/05 07:13:21;;;;;;;7.82;3.83;;;;;;;;;;5033590;28;20026;-76
2023/01/05 07:15:47;;;;;;;5.40;3.05;;;;;;;;;;5043045;28;20052;-76
2023/01/05 07:18:13;;;;;;;8.70;3.13;;;;;;;;;;5040801;28;20032;-76
2023/01/05 07:20:39;;;;;;;7.55;3.00;;;;;;;;;;5043294;28;20037;-76
2023/01/05 07:23:05;;;;;;;12.98;3.47;;;;;;;;;;5047218;28;20029;-76
2023/01/05 07:25:32;;;;;;;8.02;3.33;;;;;;;;;;5045507;28;20028;-76
2023/01/05 07:27:58;;;;;;;10.65;2.85;;;;;;;;;;5039208;28;20044;-76
2023/01/05 07:30:24;;;;;;;8.65;3.45;;;;;;;;;;5041116;28;20029;-76
2023/01/05 07:32:50;;;;;;;8.63;2.85;;;;;;;;;;5034337;28;20028;-76
2023/01/05 07:35:17;;;;;;;6.78;3.08;;;;;;;;;;5034886;28;20514;-76
2023/01/05 07:37:43;;;;;;;7.82;3.25;;;;;;;;;;5045470;28;20021;-76
2023/01/05 07:40:10;;;;;;;8.15;2.60;;;;;;;;;;5042014;28;20374;-75
2023/01/05 07:42:36;;;;;;;8.95;3.83;;;;;;;;;;5036116;28;20033;-75
2023/01/05 07:45:02;;;;;;;9.70;3.60;;;;;;;;;;5041001;28;20056;-75
2023/01/05 07:47:28;;;;;;;9.07;3.10;;;;;;;;;;5043142;28;20017;-77
2023/01/05 07:49:54;;;;;;;9.20;2.63;;;;;;;;;;5056211;28;20378;-75
2023/01/05 07:52:20;;;;;;;10.43;3.58;;;;;;;;;;5046967;28;20069;-75
2023/01/05 07:54:46;;;;;;;8.52;2.83;;;;;;;;;;5039507;28;20028;-76
2023/01/05 07:57:12;;;;;;;4.70;2.70;;;;;;;;;;5046686;28;20428;-76
2023/01/05 07:59:38;;;;;;;8.90;3.10;;;;;;;;;;5042482;28;20029;-75
2023/01/05 08:02:04;;;;;;;8.82;3.67;;;;;;;;;;5045541;28;20039;-76
2023/01/05 08:04:30;;;;;;;16.23;4.25;;;;;;;;;;5044989;28;20025;-76
2023/01/05 08:06:56;;;;;;;10.13;3.75;;;;;;;;;;5046796;28;20033;-76
2023/01/05 08:12:07;;;;;;;6.95;2.75;;;;;;;;;;5042895;28;20125;-75
2023/01/05 08:14:33;;;;;;;10.20;3.45;;;;;;;;;;5047795;28;20021;-76
2023/01/05 08:16:59;;;;;;;12.15;3.15;;;;;;;;;;5045087;28;20037;-75
2023/01/05 08:19:25;;;;;;;7.75;2.83;;;;;;;;;;5039446;28;20057;-77
2023/01/05 08:21:51;;;;;;;16.83;4.15;;;;;;;;;;5042580;28;20528;-78
2023/01/05 08:24:18;;;;;;;16.02;4.70;;;;;;;;;;5043179;28;20038;-76
2023/01/05 08:26:44;;;;;;;7.13;2.95;;;;;;;;;;5043451;28;20461;-77
2023/01/05 08:29:10;;;;;;;10.80;3.00;;;;;;;;;;5046792;28;20025;-75
2023/01/05 08:31:38;;;;;;;11.13;3.47;;;;;;;;;;5036312;28;20033;-75
2023/01/05 08:34:05;;;;;;;9.85;3.28;;;;;;;;;;5043517;28;20115;-75
2023/01/05 08:36:31;;;;;;;11.45;2.90;;;;;;;;;;5039753;28;20469;-76
2023/01/05 08:39:00;;;;;;;8.40;2.75;;;;;;;;;;5049276;28;20025;-79
2023/01/05 08:41:27;;;;;;;12.68;3.38;;;;;;;;;;5041508;28;20784;-75
2023/01/05 08:43:57;;;;;;;13.98;3.50;;;;;;;;;;5060159;28;20041;-77
2023/01/05 08:46:25;;;;;;;8.45;2.65;;;;;;;;;;5048293;28;20052;-77
2023/01/05 08:48:52;;;;;;;10.27;3.22;;;;;;;;;;5047184;28;20025;-77
2023/01/05 08:51:18;;;;;;;10.25;3.35;;;;;;;;;;5042261;28;20036;-76
2023/01/05 08:53:45;;;;;;;8.50;3.53;;;;;;;;;;5045187;28;20521;-76
2023/01/05 08:56:11;;;;;;;9.35;4.10;;;;;;;;;;5045301;28;20474;-77
2023/01/05 08:58:38;;;;;;;15.45;3.97;;;;;;;;;;5044781;28;20025;-76
2023/01/05 09:01:08;;;;;;;10.30;3.20;;;;;;;;;;5040579;28;20048;-76
2023/01/05 09:03:34;;;;;;;11.73;3.47;;;;;;;;;;5039593;28;20052;-77
2023/01/05 09:06:02;;;;;;;7.75;2.50;;;;;;;;;;5037049;28;20775;-76
2023/01/05 09:08:29;;;;;;;10.07;3.58;;;;;;;;;;5045368;28;20107;-76
2023/01/05 09:10:55;;;;;;;9.23;3.85;;;;;;;;;;5038520;28;20025;-76
2023/01/05 09:13:21;;;;;;;8.05;2.85;;;;;;;;;;5046803;28;20036;-76
2023/01/05 09:15:47;;;;;;;7.28;3.40;;;;;;;;;;5043108;28;20104;-76
2023/01/05 09:18:13;;;;;;;10.52;2.97;;;;;;;;;;5038092;28;20072;-76
2023/01/05 09:20:39;;;;;;;12.82;3.72;;;;;;;;;;5038901;28;20048;-76
2023/01/05 09:23:05;;;;;;;9.15;3.33;;;;;;;;;;5049221;28;20543;-76
2023/01/05 09:25:31;;;;;;;8.48;2.90;;;;;;;;;;5047126;28;20028;-76
2023/01/05 09:27:57;;;;;;;8.90;3.60;;;;;;;;;;5044234;28;20017;-76
2023/01/05 09:30:24;;;;;;;7.80;2.95;;;;;;;;;;5041952;28;20025;-77
2023/01/05 09:32:50;;;;;;;15.55;3.47;;;;;;;;;;5038691;28;20558;-76
2023/01/05 09:35:16;;;;;;;9.60;2.85;;;;;;;;;;5044524;28;20382;-77
2023/01/05 09:37:42;;;;;;;12.27;3.58;;;;;;;;;;5045077;28;20426;-76
2023/01/05 09:40:09;;;;;;;15.98;4.75;;;;;;;;;;5058895;28;20025;-76
2023/01/05 09:42:36;;;;;;;9.05;2.70;;;;;;;;;;5046047;28;20505;-76
2023/01/05 09:45:06;;;;;;;16.08;4.03;;;;;;;;;;5045387;28;20038;-77
2023/01/05 09:47:35;;;;;;;14.07;3.83;;;;;;;;;;5047426;28;21163;-76
2023/01/05 09:50:01;;;;;;;10.38;3.50;;;;;;;;;;5047168;28;20049;-76
2023/01/05 09:52:28;;;;;;;8.13;2.95;;;;;;;;;;5042438;28;20041;-76
2023/01/05 09:54:54;;;;;;;12.20;5.20;;;;;;;;;;5045933;28;20650;-76
2023/01/05 09:57:23;;;;;;;15.75;5.18;;;;;;;;;;5044967;28;20408;-76
2023/01/05 09:59:51;;;;;;;12.80;4.57;;;;;;;;;;5044753;28;20029;-76
2023/01/05 10:02:18;;;;;;;15.90;4.60;;;;;;;;;;5040201;28;20021;-76
2023/01/05 10:04:45;;;;;;;12.55;3.88;;;;;;;;;;5043416;28;20020;-76
2023/01/05 10:07:35;;;;;;;10.90;3.90;;;;;;;;;;5046939;28;20024;-76
2023/01/05 10:10:05;;;;;;;8.88;2.85;;;;;;;;;;5031109;28;20083;-75
2023/01/05 10:15:18;;;;;;;8.50;2.97;;;;;;;;;;5042477;28;20051;-76
2023/01/05 10:17:45;;;;;;;12.32;3.35;;;;;;;;;;5059804;28;20035;-77
2023/01/05 10:20:15;;;;;;;9.32;3.13;;;;;;;;;;5044440;28;20033;-76
2023/01/05 10:22:46;;;;;;;7.15;3.13;;;;;;;;;;5047605;28;20029;-76
2023/01/05 10:25:12;;;;;;;11.95;3.20;;;;;;;;;;5039577;28;20079;-76
2023/01/05 10:28:04;;;;;;;10.13;2.65;;;;;;;;;;5043732;28;20101;-76
2023/01/05 10:30:46;;;;;;;14.52;2.53;;;;;;;;;;5045103;28;20132;-76
2023/01/05 10:33:18;;;;;;;7.70;3.45;;;;;;;;;;5048923;28;20031;-76
2023/01/05 10:35:56;;;;;;;10.00;2.72;;;;;;;;;;5051618;28;20576;-76
2023/01/05 10:38:32;;;;;;;6.88;2.70;;;;;;;;;;5044107;28;20039;-75
2023/01/05 10:41:13;;;;;;;10.45;3.42;;;;;;;;;;5043183;28;20042;-77
2023/01/05 10:43:45;;;;;;;12.48;3.05;;;;;;;;;;5044377;28;20040;-76
2023/01/05 10:46:12;;;;;;;6.65;3.03;;;;;;;;;;5039060;28;20025;-77
2023/01/05 10:48:39;;;;;;;12.82;3.63;;;;;;;;;;5043210;28;20343;-76
2023/01/05 10:51:05;;;;;;;11.38;2.95;;;;;;;;;;5033898;28;20025;-76
2023/01/05 10:53:34;;;;;;;10.27;3.72;;;;;;;;;;5044410;28;20493;-77
2023/01/05 10:56:00;;;;;;;10.25;2.85;;;;;;;;;;5046601;28;20042;-76
2023/01/05 10:58:27;;;;;;;8.25;2.42;;;;;;;;;;5042206;28;20489;-77
2023/01/05 11:00:55;;;;;;;6.75;2.40;;;;;;;;;;5047090;28;20039;-76
2023/01/05 11:03:24;;;;;;;7.68;2.38;;;;;;;;;;5038341;28;20044;-76
2023/01/05 11:05:50;;;;;;;7.25;2.97;;;;;;;;;;5037434;28;20033;-77
2023/01/05 11:08:18;;;;;;;5.93;2.72;;;;;;;;;;5043571;28;20054;-78
2023/01/05 11:10:49;;;;;;;11.07;2.80;;;;;;;;;;5037175;28;20382;-76
2023/01/05 11:13:15;;;;;;;7.55;2.20;;;;;;;;;;5042780;28;20049;-76
2023/01/05 11:15:50;;;;;;;7.70;2.42;;;;;;;;;;5048508;28;20021;-77
2023/01/05 11:18:26;;;;;;;8.77;2.22;;;;;;;;;;5041763;28;20056;-76
2023/01/05 11:21:22;;;;;;;8.90;2.78;;;;;;;;;;5041050;28;20035;-76
2023/01/05 11:23:52;;;;;;;11.48;3.47;;;;;;;;;;5041428;28;20069;-77
2023/01/05 11:26:18;;;;;;;7.13;2.75;;;;;;;;;;5036409;28;20106;-77
2023/01/05 11:29:03;;;;;;;7.22;2.58;;;;;;;;;;5041763;28;20029;-77
2023/01/05 11:31:32;;;;;;;10.97;2.97;;;;;;;;;;5045359;28;20029;-77
2023/01/05 11:33:59;;;;;;;9.63;3.13;;;;;;;;;;5043838;28;20069;-76
2023/01/05 11:36:26;;;;;;;8.00;2.75;;;;;;;;;;5048224;28;20032;-77
2023/01/05 11:38:55;;;;;;;7.85;3.40;;;;;;;;;;5044651;28;20025;-76
2023/01/05 11:41:22;;;;;;;9.70;3.05;;;;;;;;;;5035156;28;20037;-77
2023/01/05 11:43:48;;;;;;;9.27;3.15;;;;;;;;;;5041607;28;20028;-77
2023/01/05 11:46:16;;;;;;;8.57;2.83;;;;;;;;;;5043040;28;20029;-77
2023/01/05 11:48:49;;;;;;;5.50;2.67;;;;;;;;;;5041711;28;20033;-77
2023/01/05 11:51:34;;;;;;;9.55;3.22;;;;;;;;;;5039939;28;20398;-76
2023/01/05 11:54:00;;;;;;;5.75;2.30;;;;;;;;;;5042150;28;20109;-78
2023/01/05 11:56:27;;;;;;;10.18;2.80;;;;;;;;;;5045936;28;20453;-76
2023/01/05 11:58:54;;;;;;;6.22;2.53;;;;;;;;;;5043599;28;20138;-76
2023/01/05 12:01:43;;;;;;;4.78;2.20;;;;;;;;;;5041323;28;20029;-76
2023/01/05 12:04:10;;;;;;;4.88;2.40;;;;;;;;;;5027048;28;20115;-76
2023/01/05 12:06:42;;;;;;;5.70;2.50;;;;;;;;;;5037788;28;20395;-77
2023/01/05 12:09:17;;;;;;;4.28;2.28;;;;;;;;;;5046522;28;20068;-76
2023/01/05 12:11:52;;;;;;;6.13;2.35;;;;;;;;;;5045651;28;20501;-76
2023/01/05 12:14:27;;;;;;;11.48;3.45;;;;;;;;;;5039765;28;20022;-76
2023/01/05 12:16:54;;;;;;;9.50;4.28;;;;;;;;;;5049175;28;20474;-77
2023/01/05 12:19:35;;;;;;;10.88;4.18;;;;;;;;;;5047882;28;20025;-76
2023/01/05 12:22:07;;;;;;;6.68;2.63;;;;;;;;;;5040444;28;20040;-76
2023/01/05 12:24:45;;;;;;;10.90;4.10;;;;;;;;;;5045710;28;20021;-77
2023/01/05 12:27:20;;;;;;;9.10;3.40;;;;;;;;;;5040208;28;20022;-76
2023/01/05 12:30:05;;;;;;;11.38;3.95;;;;;;;;;;5029946;28;20048;-76
2023/01/05 12:32:31;;;;;;;11.07;3.08;;;;;;;;;;5044952;28;20123;-76
2023/01/05 12:35:16;;;;;;;8.00;2.88;;;;;;;;;;5046575;28;20029;-77
2023/01/05 12:37:42;;;;;;;13.87;4.53;;;;;;;;;;5036304;28;20494;-77
2023/01/05 12:40:15;;;;;;;12.00;3.85;;;;;;;;;;5038453;28;20724;-76
2023/01/05 12:42:42;;;;;;;10.15;3.00;;;;;;;;;;5046212;28;20051;-76
2023/01/05 12:45:26;;;;;;;10.35;2.65;;;;;;;;;;5048144;28;20052;-76
2023/01/05 12:48:13;;;;;;;7.70;3.07;;;;;;;;;;5045875;28;20036;-76
2023/01/05 12:50:42;;;;;;;11.00;3.33;;;;;;;;;;5042449;28;20029;-76
2023/01/05 12:53:15;;;;;;;9.13;4.00;;;;;;;;;;5048230;28;20102;-76
2023/01/05 12:55:47;;;;;;;11.20;3.58;;;;;;;;;;5042268;28;20025;-76
2023/01/05 12:58:16;;;;;;;14.43;4.38;;;;;;;;;;5047242;28;20526;-77
2023/01/05 13:00:45;;;;;;;10.95;4.82;;;;;;;;;;5044310;28;20036;-76
2023/01/05 13:03:20;;;;;;;17.90;6.10;;;;;;;;;;5047360;28;20029;-77
2023/01/05 13:06:00;;;;;;;7.45;3.13;;;;;;;;;;5040114;28;20021;-76
2023/01/05 13:08:31;;;;;;;14.88;3.38;;;;;;;;;;5047066;28;20079;-76
2023/01/05 13:11:01;;;;;;;10.68;3.22;;;;;;;;;;5036367;28;20488;-76
2023/01/05 13:13:29;;;;;;;9.15;3.55;;;;;;;;;;5048123;28;20024;-76
2023/01/05 13:16:02;;;;;;;13.05;3.70;;;;;;;;;;5048277;28;20017;-77
2023/01/05 13:18:29;;;;;;;15.45;3.38;;;;;;;;;;5048101;28;20021;-77
2023/01/05 13:20:58;;;;;;;10.23;2.80;;;;;;;;;;5041919;28;20033;-76
2023/01/05 13:23:26;;;;;;;15.70;4.28;;;;;;;;;;5046472;28;20064;-76
2023/01/05 13:25:55;;;;;;;12.07;3.10;;;;;;;;;;5037013;28;20029;-76
2023/01/05 13:28:23;;;;;;;11.45;3.42;;;;;;;;;;5047147;28;20125;-76
2023/01/05 13:30:55;;;;;;;12.70;3.10;;;;;;;;;;5041873;28;20033;-76
2023/01/05 13:33:21;;;;;;;12.55;3.85;;;;;;;;;;5035655;28;20117;-76
2023/01/05 13:36:19;;;;;;;11.63;3.40;;;;;;;;;;5044882;28;20032;-77
2023/01/05 13:39:01;;;;;;;12.70;3.92;;;;;;;;;;5017248;28;20041;-76
2023/01/05 13:41:33;;;;;;;9.18;3.67;;;;;;;;;;5045818;28;20051;-76
2023/01/05 13:44:26;;;;;;;8.10;3.15;;;;;;;;;;5039080;28;20491;-77
2023/01/05 13:47:00;;;;;;;8.52;3.20;;;;;;;;;;5041544;28;20531;-77
2023/01/05 13:49:26;;;;;;;7.18;2.55;;;;;;;;;;5044462;28;20615;-77
2023/01/05 13:51:54;;;;;;;8.63;3.10;;;;;;;;;;5041612;28;20347;-76
2023/01/05 13:54:29;;;;;;;16.90;5.00;;;;;;;;;;5040447;28;20112;-77
2023/01/05 13:56:55;;;;;;;23.83;4.13;;;;;;;;;;5040248;28;20029;-77
2023/01/05 13:59:29;;;;;;;8.88;2.97;;;;;;;;;;5050365;28;20032;-75
2023/01/05 14:01:59;;;;;;;9.40;3.10;;;;;;;;;;5048181;28;20104;-75
2023/01/05 14:04:29;;;;;;;10.73;2.97;;;;;;;;;;5048036;28;20032;-76
2023/01/05 14:06:57;;;;;;;7.45;2.50;;;;;;;;;;5044952;28;20025;-76
2023/01/05 14:09:27;;;;;;;6.50;2.75;;;;;;;;;;5043562;28;20540;-76
2023/01/05 14:12:08;;;;;;;7.00;3.22;;;;;;;;;;5040821;28;20110;-77
2023/01/05 14:14:53;;;;;;;4.03;2.22;;;;;;;;;;5040604;28;20033;-76
2023/01/05 14:17:49;;;;;;;4.90;2.30;;;;;;;;;;5040263;28;20064;-76
2023/01/05 14:20:43;;;;;;;10.45;3.63;;;;;;;;;;4970650;28;20054;-76
2023/01/05 14:23:22;;;;;;;7.78;3.08;;;;;;;;;;5035953;28;20033;-76
2023/01/05 14:25:56;;;;;;;6.68;2.13;;;;;;;;;;5042907;28;20033;-76
2023/01/05 14:28:28;;;;;;;12.10;3.13;;;;;;;;;;5040315;28;20424;-76
2023/01/05 14:31:13;;;;;;;5.13;1.83;;;;;;;;;;5041166;28;20482;-77
2023/01/05 14:33:57;;;;;;;8.00;2.38;;;;;;;;;;5044555;28;20049;-78
2023/01/05 14:36:23;;;;;;;7.18;2.20;;;;;;;;;;5044894;28;20078;-78
2023/01/05 14:38:49;;;;;;;5.35;2.08;;;;;;;;;;5047685;28;20052;-78
2023/01/05 14:41:22;;;;;;;5.85;2.47;;;;;;;;;;5056063;28;20044;-79
2023/01/05 14:43:56;;;;;;;3.35;2.08;;;;;;;;;;5037285;28;20025;-78
2023/01/05 14:46:23;;;;;;;6.32;2.17;;;;;;;;;;5045011;28;20017;-77
2023/01/05 14:49:06;;;;;;;6.95;3.08;;;;;;;;;;5043966;28;20036;-77
2023/01/05 14:51:32;;;;;;;5.70;2.25;;;;;;;;;;5044864;28;20056;-79
2023/01/05 14:54:02;;;;;;;2.22;1.70;;;;;;;;;;5046413;28;20029;-77
2023/01/05 14:56:29;;;;;;;6.25;2.40;;;;;;;;;;5044920;28;20028;-78
2023/01/05 14:58:55;;;;;;;3.92;2.67;;;;;;;;;;5040545;28;20028;-77
2023/01/05 15:01:24;;;;;;;7.28;3.78;;;;;;;;;;5038999;28;20036;-78
2023/01/05 15:03:55;;;;;;;8.38;3.45;;;;;;;;;;5043913;28;20472;-76
2023/01/05 15:06:29;;;;;;;6.32;3.30;;;;;;;;;;5036282;28;20072;-77
2023/01/05 15:09:04;;;;;;;8.35;4.25;;;;;;;;;;5041015;28;20033;-79
2023/01/05 15:11:30;;;;;;;;;;;;;;;;;;5045328;28;20079;-76
2023/01/05 15:14:30;;;;;;;8.52;3.60;;;;;;;;;;5044442;28;19912;-76
2023/01/05 15:17:15;;;;;;;9.32;4.35;;;;;;;;;;5047392;28;20037;-78
2023/01/05 15:20:00;;;;;;;9.50;5.28;;;;;;;;;;5041643;28;20446;-78
2023/01/05 15:22:32;;;;;;;9.97;5.13;;;;;;;;;;5044714;28;20056;-76
2023/01/05 15:24:58;;;;;;;7.18;3.85;;;;;;;;;;5043583;28;20288;-76